Time;durP1;ratioP1;P1;durP2;ratioP2;P2;SDS_P1;SDS_P2;PMS_P1;PMS_P2;Temp;Humidity;BMP_temperature;BMP_pressure;BME280_temperature;BME280_humidity;BME280_pressure;Samples;Min_cycle;Max_cycle;Signal;HPM_P1;HPM_P2
2022/09/14 00:01:42;;;;;;;7.70;1.88;;;18.90;97.00;;;;;;5070409;28;20268;-51
2022/09/14 00:04:14;;;;;;;6.38;1.75;;;18.80;97.10;;;;;;5087965;28;20182;-51
2022/09/14 00:06:41;;;;;;;7.47;1.90;;;18.80;97.20;;;;;;5075245;28;20198;-49
2022/09/14 00:09:09;;;;;;;7.30;2.00;;;18.80;97.30;;;;;;5075067;28;20201;-45
2022/09/14 00:11:36;;;;;;;6.45;1.95;;;18.80;97.30;;;;;;5094485;28;20223;-49
2022/09/14 00:14:04;;;;;;;6.95;2.00;;;18.80;97.40;;;;;;5093250;28;20177;-50
2022/09/14 00:16:32;;;;;;;8.55;1.98;;;18.90;97.30;;;;;;5093131;28;20261;-44
2022/09/14 00:19:04;;;;;;;4.70;1.77;;;18.90;97.30;;;;;;5092974;28;20208;-49
2022/09/14 00:21:32;;;;;;;7.00;2.00;;;18.90;97.20;;;;;;5073435;28;20308;-56
2022/09/14 00:23:58;;;;;;;7.03;2.35;;;18.90;97.30;;;;;;5092534;28;20172;-46
2022/09/14 00:26:25;;;;;;;5.85;2.17;;;18.80;97.40;;;;;;5074887;28;20178;-51
2022/09/14 00:28:54;;;;;;;11.18;2.25;;;18.90;97.50;;;;;;5074763;28;20181;-48
2022/09/14 00:31:21;;;;;;;7.68;2.30;;;18.80;97.50;;;;;;5092720;28;20170;-50
2022/09/14 00:33:49;;;;;;;8.63;2.33;;;18.80;97.60;;;;;;5086567;28;20174;-46
2022/09/14 00:36:19;;;;;;;6.70;2.28;;;18.80;97.70;;;;;;5074487;28;20230;-49
2022/09/14 00:38:46;;;;;;;8.73;1.98;;;18.90;97.80;;;;;;5093342;28;20733;-48
2022/09/14 00:41:17;;;;;;;5.97;1.98;;;18.90;97.80;;;;;;5092915;28;20182;-48
2022/09/14 00:44:07;;;;;;;8.48;2.45;;;18.90;97.90;;;;;;5088149;28;20170;-49
2022/09/14 00:46:39;;;;;;;3.92;1.70;;;18.90;97.90;;;;;;5088316;28;20217;-48
2022/09/14 00:49:30;;;;;;;8.45;1.67;;;18.90;98.00;;;;;;5092414;28;20181;-46
2022/09/14 00:52:09;;;;;;;5.40;1.50;;;18.80;98.10;;;;;;5092859;28;20162;-46
2022/09/14 00:54:41;;;;;;;8.13;1.60;;;18.70;98.20;;;;;;5069208;28;20181;-57
2022/09/14 00:57:07;;;;;;;6.18;1.50;;;18.70;98.40;;;;;;5071605;28;20194;-49
2022/09/14 00:59:35;;;;;;;6.57;1.60;;;18.70;98.60;;;;;;5072108;28;20654;-45
2022/09/14 01:02:02;;;;;;;9.60;1.70;;;18.70;98.70;;;;;;5092233;28;20193;-48
2022/09/14 01:04:27;;;;;;;7.65;1.60;;;18.70;98.90;;;;;;5088682;28;20184;-44
2022/09/14 01:07:15;;;;;;;7.00;1.58;;;18.70;98.90;;;;;;5085281;28;20174;-46
2022/09/14 01:09:54;;;;;;;6.57;1.90;;;18.70;98.90;;;;;;5093100;28;20241;-49
2022/09/14 01:12:29;;;;;;;7.90;2.10;;;18.70;98.90;;;;;;5092657;28;20177;-46
2022/09/14 01:15:05;;;;;;;5.07;2.05;;;18.70;98.90;;;;;;5091833;28;20648;-49
2022/09/14 01:17:43;;;;;;;7.95;1.90;;;18.70;99.00;;;;;;5093938;28;20196;-48
2022/09/14 01:20:16;;;;;;;9.40;2.58;;;18.60;99.00;;;;;;5078712;28;20182;-48
2022/09/14 01:23:04;;;;;;;4.72;1.67;;;18.60;99.10;;;;;;5096456;28;20272;-45
2022/09/14 01:26:03;;;;;;;7.47;1.50;;;18.50;99.30;;;;;;5092961;28;20265;-44
2022/09/14 01:28:42;;;;;;;3.38;1.60;;;18.50;99.30;;;;;;5076737;28;20189;-46
2022/09/14 01:31:17;;;;;;;5.60;1.70;;;18.50;99.30;;;;;;5077511;28;20520;-49
2022/09/14 01:33:54;;;;;;;5.65;1.23;;;18.50;99.40;;;;;;5095953;28;20166;-48
2022/09/14 01:36:22;;;;;;;5.95;1.52;;;18.40;99.50;;;;;;5090938;28;20308;-46
2022/09/14 01:38:50;;;;;;;5.88;1.40;;;18.40;99.70;;;;;;5074761;28;20193;-49
2022/09/14 01:41:20;;;;;;;5.40;1.58;;;18.30;99.70;;;;;;5095718;28;20185;-45
2022/09/14 01:43:52;;;;;;;6.05;1.45;;;18.30;99.80;;;;;;5096022;28;20197;-47
2022/09/14 01:46:30;;;;;;;7.28;1.33;;;18.30;99.90;;;;;;5092631;28;20699;-46
2022/09/14 01:49:09;;;;;;;5.90;1.40;;;18.40;99.90;;;;;;5091765;28;20174;-44
2022/09/14 01:51:48;;;;;;;6.70;1.55;;;18.40;99.90;;;;;;5095240;28;20214;-48
2022/09/14 01:54:34;;;;;;;6.07;1.30;;;18.40;99.90;;;;;;5095562;28;20249;-47
2022/09/14 01:57:13;;;;;;;6.85;1.35;;;18.30;99.90;;;;;;5092964;28;20260;-44
2022/09/14 01:59:43;;;;;;;5.47;1.42;;;18.40;99.90;;;;;;5073449;28;20186;-48
2022/09/14 02:02:11;;;;;;;4.22;1.20;;;18.30;99.90;;;;;;5069616;28;20627;-43
2022/09/14 02:04:49;;;;;;;8.75;1.15;;;18.30;99.90;;;;;;5092382;28;20182;-45
2022/09/14 02:07:16;;;;;;;3.97;1.20;;;18.40;99.90;;;;;;5094437;28;20174;-46
2022/09/14 02:09:42;;;;;;;3.95;1.10;;;18.30;99.90;;;;;;5076368;28;20178;-44
2022/09/14 02:12:08;;;;;;;3.90;1.60;;;18.40;99.90;;;;;;5094832;28;20261;-46
2022/09/14 02:14:34;;;;;;;5.43;1.20;;;18.40;99.90;;;;;;5094861;28;20174;-53
2022/09/14 02:17:00;;;;;;;5.13;1.40;;;18.50;99.90;;;;;;5095131;28;20296;-50
2022/09/14 02:19:32;;;;;;;9.07;1.23;;;18.50;99.90;;;;;;5094140;28;20205;-54
2022/09/14 02:21:58;;;;;;;3.55;1.25;;;18.40;99.90;;;;;;5088961;28;20247;-44
2022/09/14 02:24:25;;;;;;;3.28;0.82;;;18.50;99.90;;;;;;5094726;28;20178;-48
2022/09/14 02:26:53;;;;;;;4.38;1.10;;;18.50;99.90;;;;;;5094862;28;20177;-44
2022/09/14 02:29:19;;;;;;;7.53;1.20;;;18.40;99.90;;;;;;5094386;28;20174;-48
2022/09/14 02:32:03;;;;;;;5.28;1.23;;;18.40;99.90;;;;;;5092162;28;20178;-50
2022/09/14 02:34:46;;;;;;;8.02;1.30;;;18.40;99.90;;;;;;5094727;28;20539;-53
2022/09/14 02:37:44;;;;;;;2.65;1.13;;;18.30;99.90;;;;;;5059830;28;20220;-46
2022/09/14 02:40:28;;;;;;;5.25;1.40;;;18.30;99.90;;;;;;5094691;28;20207;-47
2022/09/14 02:43:32;;;;;;;5.00;1.60;;;18.20;99.90;;;;;;5085657;28;20173;-49
2022/09/14 02:46:11;;;;;;;7.15;1.60;;;18.20;99.90;;;;;;5094922;28;20231;-51
2022/09/14 02:48:47;;;;;;;5.97;1.58;;;18.20;99.90;;;;;;5077192;28;20595;-53
2022/09/14 02:51:24;;;;;;;3.50;1.48;;;18.10;99.90;;;;;;5092625;28;20629;-47
2022/09/14 02:54:15;;;;;;;13.73;2.50;;;18.10;99.90;;;;;;5089184;28;20252;-45
2022/09/14 02:56:41;;;;;;;5.93;1.80;;;18.00;99.90;;;;;;5094680;28;20162;-45
2022/09/14 02:59:07;;;;;;;5.93;1.55;;;18.00;99.90;;;;;;5075445;28;20198;-46
2022/09/14 03:01:33;;;;;;;6.65;1.58;;;18.00;99.90;;;;;;5093451;28;20571;-45
2022/09/14 03:03:58;;;;;;;5.53;1.45;;;17.90;99.90;;;;;;5088894;28;20216;-44
2022/09/14 03:06:24;;;;;;;4.95;1.83;;;17.90;99.90;;;;;;5094412;28;20178;-45
2022/09/14 03:08:50;;;;;;;7.35;1.73;;;17.80;99.90;;;;;;5093668;28;20339;-45
2022/09/14 03:11:16;;;;;;;6.85;1.58;;;17.80;99.90;;;;;;5103441;28;20181;-45
2022/09/14 03:13:41;;;;;;;5.93;2.00;;;17.80;99.90;;;;;;5073495;28;20595;-50
2022/09/14 03:16:10;;;;;;;6.47;2.03;;;17.90;99.90;;;;;;5087391;28;20179;-48
2022/09/14 03:18:36;;;;;;;5.97;1.83;;;17.90;99.90;;;;;;5093824;28;20261;-46
2022/09/14 03:21:03;;;;;;;4.90;2.00;;;17.90;99.90;;;;;;5094458;28;20190;-47
2022/09/14 03:23:29;;;;;;;6.38;1.80;;;17.90;99.90;;;;;;5091249;28;20173;-50
2022/09/14 03:25:55;;;;;;;5.78;2.20;;;18.00;99.90;;;;;;5053563;28;20537;-50
2022/09/14 03:28:21;;;;;;;5.57;2.00;;;17.90;99.90;;;;;;5094612;28;20258;-52
2022/09/14 03:30:47;;;;;;;8.85;1.90;;;17.90;99.90;;;;;;5092565;28;20634;-53
2022/09/14 03:33:14;;;;;;;8.40;2.22;;;18.00;99.90;;;;;;5074909;28;20205;-49
2022/09/14 03:35:40;;;;;;;5.50;1.80;;;17.90;99.90;;;;;;5075099;28;20181;-47
2022/09/14 03:38:05;;;;;;;7.93;1.88;;;17.90;99.90;;;;;;5094453;28;20238;-47
2022/09/14 03:40:31;;;;;;;7.85;2.10;;;18.00;99.90;;;;;;5093050;28;20188;-50
2022/09/14 03:42:57;;;;;;;5.63;2.25;;;18.00;99.90;;;;;;5093490;28;20169;-43
2022/09/14 03:45:23;;;;;;;10.55;2.78;;;18.00;99.90;;;;;;5087073;28;20173;-50
2022/09/14 03:47:49;;;;;;;7.03;2.80;;;18.00;99.90;;;;;;5085182;28;20291;-50
2022/09/14 03:50:16;;;;;;;6.15;3.00;;;18.00;99.90;;;;;;5058954;28;20224;-46
2022/09/14 03:52:42;;;;;;;5.60;2.20;;;18.10;99.90;;;;;;5093631;28;20174;-46
2022/09/14 03:55:09;;;;;;;8.35;2.38;;;18.10;99.90;;;;;;5092074;28;20181;-48
2022/09/14 03:57:35;;;;;;;7.28;2.65;;;18.10;99.90;;;;;;5092834;28;20613;-45
2022/09/14 04:00:01;;;;;;;7.97;3.22;;;18.10;99.90;;;;;;5092752;28;20629;-47
2022/09/14 04:02:37;;;;;;;12.77;3.13;;;18.10;99.90;;;;;;5093276;28;20173;-44
2022/09/14 04:05:02;;;;;;;9.88;2.88;;;18.10;99.90;;;;;;5074148;28;20255;-48
2022/09/14 04:07:28;;;;;;;8.43;3.20;;;18.10;99.90;;;;;;5088117;28;20680;-46
2022/09/14 04:09:55;;;;;;;7.05;2.50;;;18.10;99.90;;;;;;5092043;28;20174;-48
2022/09/14 04:12:21;;;;;;;6.40;2.30;;;18.10;99.90;;;;;;5111515;28;20183;-46
2022/09/14 04:14:46;;;;;;;9.73;2.90;;;18.10;99.90;;;;;;5081279;28;20622;-50
2022/09/14 04:17:12;;;;;;;8.70;2.70;;;18.10;99.90;;;;;;5066399;28;20184;-50
2022/09/14 04:19:41;;;;;;;11.55;3.00;;;18.10;99.90;;;;;;5093216;28;20232;-48
2022/09/14 04:22:07;;;;;;;8.40;2.63;;;18.10;99.90;;;;;;5092590;28;20174;-48
2022/09/14 04:24:32;;;;;;;14.05;2.97;;;18.10;99.90;;;;;;5074695;28;20264;-47
2022/09/14 04:26:58;;;;;;;10.02;3.08;;;18.10;99.90;;;;;;5075050;28;20237;-49
2022/09/14 04:29:24;;;;;;;7.88;2.95;;;18.00;99.90;;;;;;5084910;28;20651;-54
2022/09/14 04:31:50;;;;;;;6.50;2.90;;;18.00;99.90;;;;;;5083882;28;20607;-45
2022/09/14 04:34:15;;;;;;;10.00;2.67;;;18.00;99.90;;;;;;5092731;28;20544;-48
2022/09/14 04:36:41;;;;;;;14.65;4.28;;;18.00;99.90;;;;;;5093490;28;20225;-47
2022/09/14 04:39:10;;;;;;;8.82;2.83;;;18.00;99.90;;;;;;5071215;28;20345;-46
2022/09/14 04:41:36;;;;;;;5.97;2.58;;;18.00;99.90;;;;;;5086747;28;20658;-49
2022/09/14 04:44:02;;;;;;;10.40;3.05;;;18.00;99.90;;;;;;5084231;28;20194;-50
2022/09/14 04:46:33;;;;;;;8.65;2.83;;;18.00;99.90;;;;;;5091419;28;20182;-49
2022/09/14 04:48:59;;;;;;;8.02;2.63;;;18.00;99.90;;;;;;5095549;28;20197;-49
2022/09/14 04:51:29;;;;;;;6.80;2.95;;;17.90;99.90;;;;;;5070839;28;20178;-51
2022/09/14 04:53:56;;;;;;;12.55;3.00;;;17.90;99.90;;;;;;5086727;28;20195;-50
2022/09/14 04:56:24;;;;;;;9.60;3.47;;;17.80;99.90;;;;;;5087501;28;20174;-48
2022/09/14 04:58:52;;;;;;;15.23;3.40;;;17.80;99.90;;;;;;5096579;28;20202;-51
2022/09/14 05:01:21;;;;;;;17.20;5.47;;;17.80;99.90;;;;;;5086239;28;20635;-45
2022/09/14 05:03:46;;;;;;;13.90;3.88;;;17.80;99.90;;;;;;5057166;28;20177;-47
2022/09/14 05:06:18;;;;;;;8.10;3.30;;;17.80;99.90;;;;;;5076997;28;20262;-47
2022/09/14 05:08:45;;;;;;;11.38;3.50;;;17.80;99.90;;;;;;5076765;28;20179;-44
2022/09/14 05:11:14;;;;;;;7.90;2.90;;;17.80;99.90;;;;;;5086895;28;20177;-44
2022/09/14 05:13:40;;;;;;;8.65;3.38;;;17.70;99.90;;;;;;5077100;28;20235;-45
2022/09/14 05:16:18;;;;;;;10.57;3.20;;;17.80;99.90;;;;;;5094371;28;20259;-49
2022/09/14 05:18:44;;;;;;;10.43;3.90;;;17.70;99.90;;;;;;5057474;28;20199;-51
2022/09/14 05:21:17;;;;;;;12.38;3.40;;;17.70;99.90;;;;;;5075577;28;20177;-47
2022/09/14 05:23:43;;;;;;;10.60;3.60;;;17.70;99.90;;;;;;5088809;28;20706;-50
2022/09/14 05:26:09;;;;;;;15.98;4.13;;;17.70;99.90;;;;;;5094263;28;20192;-45
2022/09/14 05:28:36;;;;;;;12.70;3.83;;;17.70;99.90;;;;;;5091967;28;20186;-50
2022/09/14 05:31:06;;;;;;;9.90;3.30;;;17.70;99.90;;;;;;5094422;28;20643;-51
2022/09/14 05:33:33;;;;;;;7.95;3.10;;;17.80;99.90;;;;;;5093881;28;20185;-45
2022/09/14 05:36:01;;;;;;;11.25;3.42;;;17.70;99.90;;;;;;5092986;28;20170;-46
2022/09/14 05:38:31;;;;;;;10.93;3.25;;;17.70;99.90;;;;;;5093902;28;20727;-47
2022/09/14 05:40:57;;;;;;;10.35;3.60;;;17.70;99.90;;;;;;5077465;28;20540;-53
2022/09/14 05:43:24;;;;;;;13.63;3.42;;;17.80;99.90;;;;;;5077586;28;20168;-50
2022/09/14 05:45:50;;;;;;;11.77;3.67;;;17.70;99.90;;;;;;5092268;28;20277;-45
2022/09/14 05:48:16;;;;;;;11.18;3.40;;;17.80;99.90;;;;;;5083523;28;20182;-48
2022/09/14 05:50:42;;;;;;;10.73;3.25;;;17.80;99.90;;;;;;5078721;28;20174;-52
2022/09/14 05:53:08;;;;;;;10.40;3.63;;;17.80;99.90;;;;;;5095701;28;20170;-49
2022/09/14 05:55:34;;;;;;;6.25;2.90;;;17.80;99.90;;;;;;5095698;28;20528;-49
2022/09/14 05:57:59;;;;;;;10.13;2.80;;;17.90;99.90;;;;;;5072768;28;20214;-48
2022/09/14 06:00:26;;;;;;;13.68;3.50;;;17.90;99.90;;;;;;5070704;28;20178;-64
2022/09/14 06:02:53;;;;;;;8.68;3.40;;;17.80;99.90;;;;;;5081083;28;20231;-60
2022/09/14 06:05:20;;;;;;;12.15;3.20;;;17.80;99.90;;;;;;5088602;28;20186;-47
2022/09/14 06:07:53;;;;;;;15.60;3.88;;;17.80;99.90;;;;;;5087482;28;20513;-45
2022/09/14 06:10:19;;;;;;;10.55;3.72;;;17.90;99.90;;;;;;5087033;28;20318;-47
2022/09/14 06:12:45;;;;;;;11.00;3.70;;;17.90;99.90;;;;;;5070960;28;20175;-47
2022/09/14 06:15:11;;;;;;;13.65;3.70;;;17.90;99.90;;;;;;5056821;28;20541;-47
2022/09/14 06:17:37;;;;;;;18.48;4.55;;;17.80;99.90;;;;;;5063429;28;20170;-47
2022/09/14 06:20:06;;;;;;;19.42;4.80;;;17.80;99.90;;;;;;5091833;28;20209;-47
2022/09/14 06:22:32;;;;;;;25.10;5.40;;;17.80;99.90;;;;;;5086254;28;20184;-55
2022/09/14 06:24:58;;;;;;;21.83;6.72;;;17.90;99.90;;;;;;5077738;28;20277;-48
2022/09/14 06:27:23;;;;;;;17.30;6.72;;;17.80;99.90;;;;;;5081118;28;20181;-51
2022/09/14 06:29:52;;;;;;;23.17;7.18;;;17.90;99.90;;;;;;5063265;28;20174;-48
2022/09/14 06:32:18;;;;;;;23.02;7.95;;;17.80;99.90;;;;;;5076589;28;20205;-48
2022/09/14 06:34:44;;;;;;;19.70;8.55;;;17.90;99.90;;;;;;5075435;28;20234;-47
2022/09/14 06:37:10;;;;;;;19.25;7.75;;;17.90;99.90;;;;;;5087766;28;20227;-46
2022/09/14 06:39:36;;;;;;;20.63;8.18;;;18.00;99.90;;;;;;5075496;28;20217;-48
2022/09/14 06:42:02;;;;;;;17.92;7.13;;;18.00;99.90;;;;;;5059877;28;20190;-45
2022/09/14 06:44:28;;;;;;;26.35;7.00;;;18.10;99.90;;;;;;5101441;28;20644;-47
2022/09/14 06:46:53;;;;;;;23.17;7.38;;;18.10;99.90;;;;;;5091992;28;20181;-49
2022/09/14 06:49:21;;;;;;;16.38;6.03;;;18.20;99.90;;;;;;5089128;28;20258;-50
2022/09/14 06:51:49;;;;;;;18.30;6.72;;;18.20;99.90;;;;;;5066688;28;20178;-53
2022/09/14 06:54:17;;;;;;;18.65;6.95;;;18.20;99.90;;;;;;5088464;28;20174;-47
2022/09/14 06:56:44;;;;;;;19.95;6.30;;;18.30;99.90;;;;;;5073306;28;20536;-50
2022/09/14 06:59:12;;;;;;;15.93;5.50;;;18.30;99.90;;;;;;5070931;28;20206;-49
2022/09/14 07:01:38;;;;;;;16.13;5.40;;;18.30;99.90;;;;;;5088356;28;20261;-55
2022/09/14 07:04:05;;;;;;;11.90;5.40;;;18.30;99.90;;;;;;5082471;28;20178;-52
2022/09/14 07:06:37;;;;;;;13.25;4.90;;;18.30;99.90;;;;;;5068610;28;20634;-62
2022/09/14 07:09:04;;;;;;;13.70;4.78;;;18.40;99.90;;;;;;5077065;28;20178;-50
2022/09/14 07:11:30;;;;;;;20.90;4.80;;;18.40;99.90;;;;;;5086782;28;20219;-49
2022/09/14 07:13:57;;;;;;;16.65;4.55;;;18.40;99.90;;;;;;5091575;28;20193;-51
2022/09/14 07:16:28;;;;;;;11.00;4.13;;;18.50;99.90;;;;;;5092749;28;20696;-51
2022/09/14 07:18:55;;;;;;;16.92;4.63;;;18.50;99.90;;;;;;5064862;28;20305;-58
2022/09/14 07:21:22;;;;;;;14.98;4.53;;;18.60;99.90;;;;;;5086488;28;20208;-50
2022/09/14 07:23:48;;;;;;;17.77;4.65;;;18.60;99.90;;;;;;5091075;28;20182;-45
2022/09/14 07:26:22;;;;;;;12.45;4.22;;;18.70;99.90;;;;;;5093485;28;20177;-46
2022/09/14 07:28:52;;;;;;;12.15;4.00;;;18.70;99.90;;;;;;5078407;28;20207;-53
2022/09/14 07:31:21;;;;;;;13.15;4.03;;;18.70;99.90;;;;;;5072878;28;20560;-48
2022/09/14 07:33:47;;;;;;;11.35;4.30;;;18.80;99.90;;;;;;5073812;28;20203;-47
2022/09/14 07:36:14;;;;;;;15.60;4.82;;;18.80;99.90;;;;;;5085789;28;20178;-57
2022/09/14 07:38:40;;;;;;;17.52;4.35;;;18.90;99.90;;;;;;5085973;28;20248;-47
2022/09/14 07:41:07;;;;;;;12.25;4.43;;;18.90;99.90;;;;;;5074353;28;20334;-47
2022/09/14 07:43:33;;;;;;;16.48;5.85;;;19.00;99.90;;;;;;5079449;28;20626;-47
2022/09/14 07:46:05;;;;;;;13.70;4.50;;;19.00;99.90;;;;;;5081589;28;20198;-50
2022/09/14 07:48:33;;;;;;;13.13;4.40;;;19.00;99.90;;;;;;5078062;28;20186;-45
2022/09/14 07:51:07;;;;;;;13.55;4.60;;;19.10;99.90;;;;;;5077979;28;20704;-47
2022/09/14 07:53:42;;;;;;;10.63;4.40;;;19.20;99.90;;;;;;5072930;28;20537;-47
2022/09/14 07:56:10;;;;;;;15.85;3.97;;;19.20;99.90;;;;;;5092311;28;20209;-44
2022/09/14 07:58:36;;;;;;;15.85;3.95;;;19.20;99.90;;;;;;5091583;28;20201;-45
2022/09/14 08:01:06;;;;;;;9.40;3.92;;;19.30;99.90;;;;;;5074777;28;20193;-45
2022/09/14 08:03:32;;;;;;;10.35;3.33;;;19.30;99.90;;;;;;5081246;28;20192;-57
2022/09/14 08:06:03;;;;;;;14.38;3.80;;;19.30;99.90;;;;;;5084877;28;20199;-47
2022/09/14 08:08:30;;;;;;;16.73;3.63;;;19.30;99.90;;;;;;5089361;28;20209;-50
2022/09/14 08:11:04;;;;;;;12.63;4.00;;;19.40;99.90;;;;;;5091507;28;20257;-48
2022/09/14 08:13:31;;;;;;;9.05;3.22;;;19.40;99.90;;;;;;5085166;28;20250;-46
2022/09/14 08:15:59;;;;;;;13.95;2.97;;;19.40;99.90;;;;;;5104755;28;20181;-49
2022/09/14 08:18:26;;;;;;;7.95;2.08;;;19.40;99.90;;;;;;5095725;28;20707;-47
2022/09/14 08:20:52;;;;;;;11.93;2.00;;;19.50;99.90;;;;;;5081871;28;20184;-47
2022/09/14 08:23:18;;;;;;;7.18;2.40;;;19.50;99.90;;;;;;5089211;28;20649;-45
2022/09/14 08:25:43;;;;;;;14.05;3.17;;;19.50;99.90;;;;;;5077085;28;20183;-49
2022/09/14 08:28:09;;;;;;;6.47;1.98;;;19.60;99.90;;;;;;5061733;28;20255;-50
2022/09/14 08:30:36;;;;;;;9.50;2.38;;;19.60;99.90;;;;;;5076661;28;20186;-46
2022/09/14 08:33:02;;;;;;;8.77;1.90;;;19.70;99.90;;;;;;5087087;28;20626;-45
2022/09/14 08:35:27;;;;;;;7.25;2.03;;;19.70;99.90;;;;;;5078205;28;20177;-49
2022/09/14 08:37:53;;;;;;;10.85;1.90;;;19.70;99.90;;;;;;5085349;28;20246;-61
2022/09/14 08:40:19;;;;;;;7.93;2.13;;;19.70;99.90;;;;;;5090264;28;20258;-47
2022/09/14 08:42:46;;;;;;;12.25;2.47;;;19.80;99.90;;;;;;5069595;28;20179;-52
2022/09/14 08:45:15;;;;;;;10.18;2.20;;;19.80;99.90;;;;;;5095020;28;20181;-51
2022/09/14 08:47:42;;;;;;;4.97;2.00;;;19.80;99.90;;;;;;5087462;28;20170;-54
2022/09/14 08:50:16;;;;;;;8.88;2.20;;;19.80;99.90;;;;;;5076453;28;20190;-46
2022/09/14 08:52:52;;;;;;;12.63;2.50;;;19.80;99.90;;;;;;5083322;28;20231;-47
2022/09/14 08:55:32;;;;;;;8.25;2.03;;;19.70;99.90;;;;;;5097559;28;20509;-45
2022/09/14 08:58:27;;;;;;;10.73;2.40;;;19.70;99.90;;;;;;5093828;28;20257;-50
2022/09/14 09:01:07;;;;;;;11.18;2.10;;;19.70;99.90;;;;;;5075603;28;20171;-45
2022/09/14 09:03:47;;;;;;;14.40;1.60;;;19.80;99.90;;;;;;5078090;28;20185;-57
2022/09/14 09:06:51;;;;;;;5.78;1.50;;;19.70;99.90;;;;;;5092992;28;20197;-51
2022/09/14 09:09:31;;;;;;;8.95;2.15;;;19.80;99.90;;;;;;5057000;28;20197;-48
2022/09/14 09:11:58;;;;;;;10.38;1.80;;;19.80;99.90;;;;;;5094803;28;20595;-50
2022/09/14 09:14:39;;;;;;;4.88;1.40;;;19.80;99.90;;;;;;5079637;28;20649;-50
2022/09/14 09:17:15;;;;;;;10.23;1.50;;;19.80;99.90;;;;;;5096146;28;20182;-48
2022/09/14 09:19:52;;;;;;;8.15;1.70;;;19.80;99.90;;;;;;5116736;28;20275;-51
2022/09/14 09:22:22;;;;;;;6.65;1.70;;;19.90;99.80;;;;;;5108888;28;20249;-47
2022/09/14 09:24:54;;;;;;;16.80;2.00;;;20.00;99.70;;;;;;5090211;28;20162;-45
2022/09/14 09:27:19;;;;;;;8.80;1.65;;;20.00;99.60;;;;;;5097060;28;20189;-51
2022/09/14 09:29:45;;;;;;;9.95;1.52;;;20.00;99.50;;;;;;5094365;28;20193;-50
2022/09/14 09:32:29;;;;;;;4.82;1.20;;;20.10;99.50;;;;;;5071055;28;20189;-51
2022/09/14 09:35:18;;;;;;;7.88;1.50;;;20.10;99.30;;;;;;5062403;28;20697;-54
2022/09/14 09:37:57;;;;;;;9.65;1.60;;;20.10;99.00;;;;;;5072303;28;20226;-49
2022/09/14 09:41:04;;;;;;;6.25;1.35;;;20.10;98.90;;;;;;5075981;28;20182;-49
2022/09/14 09:43:30;;;;;;;7.28;1.85;;;20.10;98.80;;;;;;5055760;28;20175;-45
2022/09/14 09:45:59;;;;;;;9.18;1.50;;;20.10;98.90;;;;;;5063822;28;20602;-47
2022/09/14 09:48:32;;;;;;;10.75;1.75;;;20.20;98.80;;;;;;5097926;28;20177;-47
2022/09/14 09:51:09;;;;;;;11.43;1.80;;;20.30;98.80;;;;;;5079674;28;20201;-50
2022/09/14 09:54:06;;;;;;;16.67;2.47;;;20.50;98.80;;;;;;5064853;28;20634;-48
2022/09/14 09:56:36;;;;;;;11.63;1.90;;;20.60;98.60;;;;;;5060209;28;20193;-47
2022/09/14 09:59:02;;;;;;;9.05;1.63;;;20.70;98.20;;;;;;5086193;28;20208;-50
2022/09/14 10:01:29;;;;;;;9.30;1.60;;;20.70;97.90;;;;;;5095460;28;20193;-48
2022/09/14 10:04:16;;;;;;;6.60;1.48;;;20.80;97.70;;;;;;5072562;28;20173;-47
2022/09/14 10:06:47;;;;;;;7.05;1.58;;;20.80;97.40;;;;;;5074784;28;20192;-50
2022/09/14 10:09:19;;;;;;;8.82;1.83;;;20.90;97.30;;;;;;5070395;28;20634;-49
2022/09/14 10:11:47;;;;;;;8.30;1.30;;;20.90;97.00;;;;;;5093843;28;20177;-48
2022/09/14 10:14:24;;;;;;;6.40;1.70;;;20.90;96.70;;;;;;5074868;28;20169;-49
2022/09/14 10:16:50;;;;;;;7.10;1.70;;;20.90;96.50;;;;;;5061981;28;20181;-49
2022/09/14 10:19:25;;;;;;;7.55;1.88;;;20.90;96.50;;;;;;5074406;28;20202;-49
2022/09/14 10:22:13;;;;;;;8.82;1.50;;;21.00;96.50;;;;;;5074529;28;20181;-49
2022/09/14 10:24:39;;;;;;;7.65;1.50;;;21.00;96.20;;;;;;5094836;28;20199;-52
2022/09/14 10:27:43;;;;;;;6.22;1.88;;;21.10;95.90;;;;;;5089489;28;20169;-49
2022/09/14 10:30:14;;;;;;;8.20;1.83;;;21.10;95.50;;;;;;5081480;28;20232;-61
2022/09/14 10:32:43;;;;;;;5.05;1.70;;;21.20;95.70;;;;;;5085680;28;20300;-48
2022/09/14 10:35:14;;;;;;;10.10;1.42;;;21.30;95.90;;;;;;5092414;28;20292;-49
2022/09/14 10:38:14;;;;;;;7.40;1.33;;;21.50;95.70;;;;;;5071154;28;20225;-62
2022/09/14 10:40:44;;;;;;;5.13;1.30;;;21.70;95.10;;;;;;5073875;28;20261;-47
2022/09/14 10:43:23;;;;;;;13.70;1.77;;;21.80;94.60;;;;;;5086050;28;20205;-51
2022/09/14 10:45:51;;;;;;;9.80;1.50;;;21.90;94.20;;;;;;5076381;28;20170;-50
2022/09/14 10:49:04;;;;;;;7.38;1.38;;;21.90;94.10;;;;;;5086679;28;20186;-59
2022/09/14 10:51:35;;;;;;;5.07;1.40;;;21.90;94.00;;;;;;5005030;28;20231;-50
2022/09/14 10:54:25;;;;;;;8.80;1.45;;;22.00;93.90;;;;;;5061969;28;20198;-51
2022/09/14 10:57:16;;;;;;;11.10;1.63;;;22.10;93.70;;;;;;5074753;28;20178;-50
2022/09/14 11:00:14;;;;;;;8.05;1.50;;;22.10;93.40;;;;;;5065601;28;20270;-65
2022/09/14 11:02:58;;;;;;;9.48;1.40;;;22.20;93.00;;;;;;5075531;28;20197;-50
2022/09/14 11:05:33;;;;;;;9.93;1.67;;;22.20;93.10;;;;;;5073454;28;20186;-50
2022/09/14 11:08:14;;;;;;;7.78;1.35;;;22.20;92.90;;;;;;5090925;28;20182;-48
2022/09/14 11:10:59;;;;;;;4.10;1.63;;;22.20;92.70;;;;;;5098184;28;20173;-49
2022/09/14 11:13:56;;;;;;;8.18;1.60;;;22.20;92.60;;;;;;5088319;28;20178;-49
2022/09/14 11:16:46;;;;;;;13.35;1.50;;;22.20;92.40;;;;;;5071440;28;20237;-50
2022/09/14 11:19:31;;;;;;;9.88;1.95;;;22.10;92.40;;;;;;5091844;28;20201;-49
2022/09/14 11:22:04;;;;;;;6.32;1.30;;;22.10;92.30;;;;;;5091494;28;20220;-50
2022/09/14 11:24:48;;;;;;;9.35;1.58;;;22.10;92.40;;;;;;5062208;28;20239;-52
2022/09/14 11:27:34;;;;;;;8.07;1.73;;;22.20;92.40;;;;;;5069305;28;20178;-51
2022/09/14 11:30:13;;;;;;;10.18;1.67;;;22.30;92.30;;;;;;5072119;28;20273;-49
2022/09/14 11:32:47;;;;;;;6.57;1.42;;;22.50;92.10;;;;;;5080602;28;20260;-49
2022/09/14 11:35:52;;;;;;;9.30;1.60;;;22.70;91.70;;;;;;5077043;28;20177;-52
2022/09/14 11:38:20;;;;;;;4.97;1.40;;;22.90;91.30;;;;;;5081990;28;20217;-51
2022/09/14 11:41:04;;;;;;;11.57;1.48;;;23.20;91.00;;;;;;5092182;28;20182;-57
2022/09/14 11:43:43;;;;;;;8.18;1.70;;;23.60;90.50;;;;;;5078245;28;20178;-51
2022/09/14 11:46:36;;;;;;;6.80;1.40;;;23.80;89.30;;;;;;5074563;28;20259;-52
2022/09/14 11:49:33;;;;;;;13.10;1.70;;;24.00;87.80;;;;;;5092306;28;20189;-50
2022/09/14 11:52:11;;;;;;;8.23;1.67;;;24.10;86.70;;;;;;5103601;28;20201;-52
2022/09/14 11:54:39;;;;;;;5.78;1.50;;;24.20;84.80;;;;;;5057522;28;20181;-53
2022/09/14 11:57:05;;;;;;;7.47;1.60;;;24.20;84.00;;;;;;5104257;28;20186;-50
2022/09/14 11:59:34;;;;;;;6.22;1.40;;;24.20;83.50;;;;;;5114066;28;20262;-47
2022/09/14 12:02:21;;;;;;;6.40;1.40;;;24.20;82.90;;;;;;5107029;28;20175;-52
2022/09/14 12:05:09;;;;;;;9.57;1.63;;;24.10;82.40;;;;;;5093106;28;20201;-50
2022/09/14 12:07:46;;;;;;;10.82;1.52;;;24.10;82.50;;;;;;5075600;28;20181;-52
2022/09/14 12:10:17;;;;;;;12.40;1.50;;;24.00;82.30;;;;;;5067198;28;20232;-47
2022/09/14 12:12:50;;;;;;;9.43;1.70;;;23.90;81.50;;;;;;5076228;28;20184;-48
2022/09/14 12:15:25;;;;;;;9.70;1.98;;;23.90;82.30;;;;;;5092457;28;20517;-52
2022/09/14 12:17:53;;;;;;;9.05;1.83;;;23.80;82.60;;;;;;5083105;28;20577;-49
2022/09/14 12:20:41;;;;;;;7.38;1.50;;;23.80;82.00;;;;;;5072769;28;20180;-67
2022/09/14 12:23:37;;;;;;;8.68;1.98;;;23.70;81.50;;;;;;5074087;28;20177;-50
2022/09/14 12:26:09;;;;;;;9.82;1.95;;;23.70;81.00;;;;;;5059435;28;20185;-45
2022/09/14 12:28:36;;;;;;;11.48;1.98;;;23.60;81.10;;;;;;5083947;28;20185;-46
2022/09/14 12:31:01;;;;;;;6.65;1.90;;;23.50;81.40;;;;;;5072569;28;20174;-51
2022/09/14 12:33:30;;;;;;;6.05;2.00;;;23.30;81.30;;;;;;5055409;28;20186;-45
2022/09/14 12:35:57;;;;;;;9.25;2.13;;;23.20;81.90;;;;;;5077252;28;20597;-50
2022/09/14 12:38:28;;;;;;;9.98;1.85;;;23.00;82.60;;;;;;5089166;28;20209;-47
2022/09/14 12:41:00;;;;;;;9.73;1.70;;;22.90;82.80;;;;;;5093120;28;20606;-49
2022/09/14 12:43:32;;;;;;;7.10;1.63;;;22.70;83.90;;;;;;5073616;28;20206;-48
2022/09/14 12:46:01;;;;;;;6.82;2.00;;;22.70;84.70;;;;;;5084417;28;20269;-46
2022/09/14 12:48:49;;;;;;;4.85;1.77;;;22.80;84.80;;;;;;5088224;28;20182;-50
2022/09/14 12:51:31;;;;;;;8.98;2.50;;;22.80;85.00;;;;;;5096252;28;20212;-49
2022/09/14 12:54:15;;;;;;;5.15;1.50;;;22.90;85.30;;;;;;5073594;28;20218;-48
2022/09/14 12:57:12;;;;;;;8.48;1.98;;;22.90;85.40;;;;;;5072974;28;20178;-46
2022/09/14 12:59:53;;;;;;;11.55;2.08;;;22.90;84.60;;;;;;5083790;28;20209;-64
2022/09/14 13:02:18;;;;;;;6.35;1.77;;;22.90;84.80;;;;;;5077291;28;20181;-49
2022/09/14 13:04:46;;;;;;;15.90;2.40;;;22.80;86.30;;;;;;5092398;28;20178;-48
2022/09/14 13:07:17;;;;;;;9.93;2.40;;;22.70;87.80;;;;;;5073066;28;20186;-51
2022/09/14 13:09:51;;;;;;;12.75;1.77;;;22.70;88.60;;;;;;5076362;28;20173;-51